sensor_id;sensor_type;location;lat;lon;timestamp;pressure;altitude;pressure_sealevel;temperature;humidity
7748;BME280;3918;42.564;23.164;2023-08-31T04:03:44;-11650.84;;;-142.29;100.00
7748;BME280;3918;42.564;23.164;2023-08-31T04:06:12;-11650.84;;;-142.29;100.00
7748;BME280;3918;42.564;23.164;2023-08-31T04:08:41;-11650.84;;;-142.29;100.00
7748;BME280;3918;42.564;23.164;2023-08-31T04:11:08;-11650.84;;;-142.29;100.00
7748;BME280;3918;42.564;23.164;2023-08-31T04:13:38;-11650.84;;;-142.29;100.00
7748;BME280;3918;42.564;23.164;2023-08-31T04:16:13;-11650.84;;;-142.29;100.00
7748;BME280;3918;42.564;23.164;2023-08-31T04:18:41;-11650.84;;;-142.29;100.00
7748;BME280;3918;42.564;23.164;2023-08-31T04:21:08;-11650.84;;;-142.29;100.00
7748;BME280;3918;42.564;23.164;2023-08-31T04:23:44;-11650.84;;;-142.29;100.00
7748;BME280;3918;42.564;23.164;2023-08-31T04:26:13;-11650.84;;;-142.29;100.00
7748;BME280;3918;42.564;23.164;2023-08-31T04:28:43;-11650.84;;;-142.29;100.00
7748;BME280;3918;42.564;23.164;2023-08-31T04:31:13;-11650.84;;;-142.29;100.00
7748;BME280;3918;42.564;23.164;2023-08-31T04:33:40;-11650.84;;;-142.29;100.00
7748;BME280;3918;42.564;23.164;2023-08-31T04:36:08;-11650.84;;;-142.29;100.00
7748;BME280;3918;42.564;23.164;2023-08-31T04:38:35;-11650.84;;;-142.29;100.00
7748;BME280;3918;42.564;23.164;2023-08-31T04:41:03;-11650.84;;;-142.29;100.00
7748;BME280;3918;42.564;23.164;2023-08-31T04:43:30;-11650.84;;;-142.29;100.00
7748;BME280;3918;42.564;23.164;2023-08-31T04:45:57;-11650.84;;;-142.29;100.00
7748;BME280;3918;42.564;23.164;2023-08-31T04:48:23;-11650.84;;;-142.29;100.00
7748;BME280;3918;42.564;23.164;2023-08-31T04:50:55;-11650.84;;;-142.29;100.00
7748;BME280;3918;42.564;23.164;2023-08-31T04:53:23;-11650.84;;;-142.29;100.00
7748;BME280;3918;42.564;23.164;2023-08-31T04:55:54;-11650.84;;;-142.29;97.65
7748;BME280;3918;42.564;23.164;2023-08-31T04:58:21;-11650.84;;;-142.29;86.20
7748;BME280;3918;42.564;23.164;2023-08-31T05:00:47;-11650.84;;;-142.29;77.60
7748;BME280;3918;42.564;23.164;2023-08-31T05:03:14;-11650.84;;;-142.29;71.83
7748;BME280;3918;42.564;23.164;2023-08-31T05:05:44;-11650.84;;;-142.29;65.63
7748;BME280;3918;42.564;23.164;2023-08-31T05:08:10;-11650.84;;;-142.29;59.65
7748;BME280;3918;42.564;23.164;2023-08-31T05:10:39;-11650.84;;;-142.29;57.27
7748;BME280;3918;42.564;23.164;2023-08-31T05:13:08;-11650.84;;;-142.29;55.84
7748;BME280;3918;42.564;23.164;2023-08-31T05:15:35;-11650.84;;;-142.29;53.06
7748;BME280;3918;42.564;23.164;2023-08-31T05:18:02;-11650.84;;;-142.29;51.62
7748;BME280;3918;42.564;23.164;2023-08-31T05:20:29;-11650.84;;;-142.29;51.34
7748;BME280;3918;42.564;23.164;2023-08-31T05:22:57;-11650.84;;;-142.29;53.88
7748;BME280;3918;42.564;23.164;2023-08-31T05:25:24;-11650.84;;;-142.29;53.84
7748;BME280;3918;42.564;23.164;2023-08-31T05:27:52;-11650.84;;;-142.29;51.59
7748;BME280;3918;42.564;23.164;2023-08-31T05:30:19;-11650.84;;;-142.29;50.29
7748;BME280;3918;42.564;23.164;2023-08-31T05:32:46;-11650.84;;;-142.29;50.06
7748;BME280;3918;42.564;23.164;2023-08-31T05:35:13;-11650.84;;;-142.29;50.33
7748;BME280;3918;42.564;23.164;2023-08-31T05:37:39;-11650.84;;;-142.29;49.60
7748;BME280;3918;42.564;23.164;2023-08-31T05:40:07;-11650.84;;;-142.29;48.66
7748;BME280;3918;42.564;23.164;2023-08-31T05:42:37;-11650.84;;;-142.29;47.90
7748;BME280;3918;42.564;23.164;2023-08-31T05:45:07;-11650.84;;;-142.29;47.26
7748;BME280;3918;42.564;23.164;2023-08-31T05:47:35;-11650.84;;;-142.29;47.30
7748;BME280;3918;42.564;23.164;2023-08-31T05:50:04;-11650.84;;;-142.29;46.98
7748;BME280;3918;42.564;23.164;2023-08-31T05:52:31;-11650.84;;;-142.29;46.60
7748;BME280;3918;42.564;23.164;2023-08-31T05:54:58;-11650.84;;;-142.29;46.91
7748;BME280;3918;42.564;23.164;2023-08-31T05:57:26;-11650.84;;;-142.29;47.55
7748;BME280;3918;42.564;23.164;2023-08-31T05:59:53;-11650.84;;;-142.29;46.71
7748;BME280;3918;42.564;23.164;2023-08-31T06:02:21;-11650.84;;;-142.29;45.49
7748;BME280;3918;42.564;23.164;2023-08-31T06:04:47;-11650.84;;;-142.29;45.73
7748;BME280;3918;42.564;23.164;2023-08-31T06:07:14;-11650.84;;;-142.29;43.73
7748;BME280;3918;42.564;23.164;2023-08-31T06:09:41;-11650.84;;;-142.29;42.95
7748;BME280;3918;42.564;23.164;2023-08-31T06:12:08;-11650.84;;;-142.29;43.89
7748;BME280;3918;42.564;23.164;2023-08-31T06:14:35;-11650.84;;;-142.29;42.18
7748;BME280;3918;42.564;23.164;2023-08-31T06:17:05;-11650.84;;;-142.29;42.37
7748;BME280;3918;42.564;23.164;2023-08-31T06:19:33;-11650.84;;;-142.29;39.94
7748;BME280;3918;42.564;23.164;2023-08-31T06:22:03;-11650.84;;;-142.29;40.31
7748;BME280;3918;42.564;23.164;2023-08-31T06:24:30;-11650.84;;;-142.29;39.41
7748;BME280;3918;42.564;23.164;2023-08-31T06:26:57;-11650.84;;;-142.29;39.74
7748;BME280;3918;42.564;23.164;2023-08-31T06:29:24;-11650.84;;;-142.29;40.07
7748;BME280;3918;42.564;23.164;2023-08-31T06:31:51;-11650.84;;;-142.29;38.75
7748;BME280;3918;42.564;23.164;2023-08-31T06:34:18;-11650.84;;;-142.29;39.08
7748;BME280;3918;42.564;23.164;2023-08-31T06:36:46;-11650.84;;;-142.29;40.68
7748;BME280;3918;42.564;23.164;2023-08-31T06:39:12;-11650.84;;;-142.29;40.64
7748;BME280;3918;42.564;23.164;2023-08-31T06:41:41;-11650.84;;;-142.29;38.90
7748;BME280;3918;42.564;23.164;2023-08-31T06:44:08;-11650.84;;;-142.29;40.72
7748;BME280;3918;42.564;23.164;2023-08-31T06:46:34;-11650.84;;;-142.29;41.12
7748;BME280;3918;42.564;23.164;2023-08-31T06:49:03;-11650.84;;;-142.29;42.12
7748;BME280;3918;42.564;23.164;2023-08-31T06:51:30;-11650.84;;;-142.29;42.51
7748;BME280;3918;42.564;23.164;2023-08-31T06:53:58;-11650.84;;;-142.29;43.19
7748;BME280;3918;42.564;23.164;2023-08-31T06:56:31;-11650.84;;;-142.29;43.55
7748;BME280;3918;42.564;23.164;2023-08-31T06:58:58;-11650.84;;;-142.29;43.88
7748;BME280;3918;42.564;23.164;2023-08-31T07:01:25;-11650.84;;;-142.29;43.94
7748;BME280;3918;42.564;23.164;2023-08-31T07:03:52;-11650.84;;;-142.29;43.52
7748;BME280;3918;42.564;23.164;2023-08-31T07:06:19;-11650.84;;;-142.29;42.27
7748;BME280;3918;42.564;23.164;2023-08-31T07:08:47;-11650.84;;;-142.29;40.55
7748;BME280;3918;42.564;23.164;2023-08-31T07:11:15;-11650.84;;;-142.29;40.94
7748;BME280;3918;42.564;23.164;2023-08-31T07:13:42;-11650.84;;;-142.29;40.92
7748;BME280;3918;42.564;23.164;2023-08-31T07:16:09;-11650.84;;;-142.29;42.86
7748;BME280;3918;42.564;23.164;2023-08-31T07:18:36;-11650.84;;;-142.29;43.04
7748;BME280;3918;42.564;23.164;2023-08-31T07:21:05;-11650.84;;;-142.29;42.51
7748;BME280;3918;42.564;23.164;2023-08-31T07:23:33;-11650.84;;;-142.29;42.09
7748;BME280;3918;42.564;23.164;2023-08-31T07:26:03;-11650.84;;;-142.29;43.42
7748;BME280;3918;42.564;23.164;2023-08-31T07:28:31;-11650.84;;;-142.29;41.08
7748;BME280;3918;42.564;23.164;2023-08-31T07:31:02;-11650.84;;;-142.29;38.60
7748;BME280;3918;42.564;23.164;2023-08-31T07:33:32;-11650.84;;;-142.29;39.92
7748;BME280;3918;42.564;23.164;2023-08-31T07:36:00;-11650.84;;;-142.29;40.55
7748;BME280;3918;42.564;23.164;2023-08-31T07:38:28;-11650.84;;;-142.29;44.26
7748;BME280;3918;42.564;23.164;2023-08-31T07:40:55;-11650.84;;;-142.29;41.79
7748;BME280;3918;42.564;23.164;2023-08-31T07:43:22;-11650.84;;;-142.29;39.24
7748;BME280;3918;42.564;23.164;2023-08-31T07:45:50;-11650.84;;;-142.29;38.88
7748;BME280;3918;42.564;23.164;2023-08-31T07:48:20;-11650.84;;;-142.29;40.27
7748;BME280;3918;42.564;23.164;2023-08-31T07:50:48;-11650.84;;;-142.29;40.91
7748;BME280;3918;42.564;23.164;2023-08-31T07:53:15;-11650.84;;;-142.29;41.50
7748;BME280;3918;42.564;23.164;2023-08-31T07:55:51;-11650.84;;;-142.29;40.93
7748;BME280;3918;42.564;23.164;2023-08-31T07:58:19;-11650.84;;;-142.29;42.07
7748;BME280;3918;42.564;23.164;2023-08-31T08:00:48;-11650.84;;;-142.29;41.28
7748;BME280;3918;42.564;23.164;2023-08-31T08:03:16;-11650.84;;;-142.29;41.72
7748;BME280;3918;42.564;23.164;2023-08-31T08:05:43;-11650.84;;;-142.29;41.92
7748;BME280;3918;42.564;23.164;2023-08-31T08:08:12;-11650.84;;;-142.29;39.27
7748;BME280;3918;42.564;23.164;2023-08-31T08:10:41;-11650.84;;;-142.29;40.94
7748;BME280;3918;42.564;23.164;2023-08-31T08:13:09;-11650.84;;;-142.29;39.18
7748;BME280;3918;42.564;23.164;2023-08-31T08:15:36;-11650.84;;;-142.29;39.09
7748;BME280;3918;42.564;23.164;2023-08-31T08:18:05;-11650.84;;;-142.29;38.88
7748;BME280;3918;42.564;23.164;2023-08-31T08:20:37;-11650.84;;;-142.29;39.23
7748;BME280;3918;42.564;23.164;2023-08-31T08:23:05;-11650.84;;;-142.29;37.66
7748;BME280;3918;42.564;23.164;2023-08-31T08:25:35;-11650.84;;;-142.29;38.31
7748;BME280;3918;42.564;23.164;2023-08-31T08:28:02;-11650.84;;;-142.29;39.10
7748;BME280;3918;42.564;23.164;2023-08-31T08:30:29;-11650.84;;;-142.29;37.89
7748;BME280;3918;42.564;23.164;2023-08-31T08:32:55;-11650.84;;;-142.29;38.99
7748;BME280;3918;42.564;23.164;2023-08-31T08:35:22;-11650.84;;;-142.29;38.02
7748;BME280;3918;42.564;23.164;2023-08-31T08:37:53;-11650.84;;;-142.29;37.18
7748;BME280;3918;42.564;23.164;2023-08-31T08:40:24;-11650.84;;;-142.29;37.80
7748;BME280;3918;42.564;23.164;2023-08-31T08:42:58;-11650.84;;;-142.29;38.51
7748;BME280;3918;42.564;23.164;2023-08-31T08:45:30;-11650.84;;;-142.29;38.82
7748;BME280;3918;42.564;23.164;2023-08-31T08:48:03;-11650.84;;;-142.29;39.33
7748;BME280;3918;42.564;23.164;2023-08-31T08:50:36;-11650.84;;;-142.29;37.65
7748;BME280;3918;42.564;23.164;2023-08-31T08:53:09;-11650.84;;;-142.29;39.74
7748;BME280;3918;42.564;23.164;2023-08-31T08:55:39;-11650.84;;;-142.29;38.26
7748;BME280;3918;42.564;23.164;2023-08-31T08:58:09;-11650.84;;;-142.29;38.72
7748;BME280;3918;42.564;23.164;2023-08-31T09:00:43;-11650.84;;;-142.29;40.04
7748;BME280;3918;42.564;23.164;2023-08-31T09:03:11;-11650.84;;;-142.29;41.94
7748;BME280;3918;42.564;23.164;2023-08-31T09:05:38;-11650.84;;;-142.29;41.91
7748;BME280;3918;42.564;23.164;2023-08-31T09:08:06;-11650.84;;;-142.29;43.82
7748;BME280;3918;42.564;23.164;2023-08-31T09:10:37;-11650.84;;;-142.29;41.34
7748;BME280;3918;42.564;23.164;2023-08-31T09:13:08;-11650.84;;;-142.29;41.37
7748;BME280;3918;42.564;23.164;2023-08-31T09:15:39;-11650.84;;;-142.29;42.35
7748;BME280;3918;42.564;23.164;2023-08-31T09:18:07;-11650.84;;;-142.29;43.35
7748;BME280;3918;42.564;23.164;2023-08-31T09:20:43;-11650.84;;;-142.29;41.35
7748;BME280;3918;42.564;23.164;2023-08-31T09:23:10;-11650.84;;;-142.29;42.52
7748;BME280;3918;42.564;23.164;2023-08-31T09:25:44;-11650.84;;;-142.29;42.27
7748;BME280;3918;42.564;23.164;2023-08-31T09:28:14;-11650.84;;;-142.29;43.04
7748;BME280;3918;42.564;23.164;2023-08-31T09:30:41;-11650.84;;;-142.29;43.31
7748;BME280;3918;42.564;23.164;2023-08-31T09:33:09;-11650.84;;;-142.29;44.04
7748;BME280;3918;42.564;23.164;2023-08-31T09:35:39;-11650.84;;;-142.29;43.60
7748;BME280;3918;42.564;23.164;2023-08-31T09:38:08;-11650.84;;;-142.29;42.51
7748;BME280;3918;42.564;23.164;2023-08-31T09:40:35;-11650.84;;;-142.29;42.86
7748;BME280;3918;42.564;23.164;2023-08-31T09:43:04;-11650.84;;;-142.29;42.92
7748;BME280;3918;42.564;23.164;2023-08-31T09:45:32;-11650.84;;;-142.29;42.43
7748;BME280;3918;42.564;23.164;2023-08-31T09:47:59;-11650.84;;;-142.29;43.54
7748;BME280;3918;42.564;23.164;2023-08-31T09:50:28;-11650.84;;;-142.29;43.21
7748;BME280;3918;42.564;23.164;2023-08-31T09:53:00;-11650.84;;;-142.29;42.71
7748;BME280;3918;42.564;23.164;2023-08-31T09:55:28;-11650.84;;;-142.29;45.33
7748;BME280;3918;42.564;23.164;2023-08-31T09:57:59;-11650.84;;;-142.29;42.93
7748;BME280;3918;42.564;23.164;2023-08-31T10:00:30;-11650.84;;;-142.29;42.93
7748;BME280;3918;42.564;23.164;2023-08-31T10:03:03;-11650.84;;;-142.29;43.05
7748;BME280;3918;42.564;23.164;2023-08-31T10:05:31;-11650.84;;;-142.29;44.00
7748;BME280;3918;42.564;23.164;2023-08-31T10:07:58;-11650.84;;;-142.29;44.14
7748;BME280;3918;42.564;23.164;2023-08-31T10:10:28;-11650.84;;;-142.29;43.29
7748;BME280;3918;42.564;23.164;2023-08-31T10:12:58;-11650.84;;;-142.29;43.84
7748;BME280;3918;42.564;23.164;2023-08-31T10:15:34;-11650.84;;;-142.29;42.23
7748;BME280;3918;42.564;23.164;2023-08-31T10:18:01;-11650.84;;;-142.29;44.39
7748;BME280;3918;42.564;23.164;2023-08-31T10:20:29;-11650.84;;;-142.29;43.14
7748;BME280;3918;42.564;23.164;2023-08-31T10:22:58;-11650.84;;;-142.29;42.80
7748;BME280;3918;42.564;23.164;2023-08-31T10:26:00;-11650.84;;;-142.29;42.22
7748;BME280;3918;42.564;23.164;2023-08-31T10:28:29;-11650.84;;;-142.29;43.06
7748;BME280;3918;42.564;23.164;2023-08-31T10:31:04;-11650.84;;;-142.29;45.57
7748;BME280;3918;42.564;23.164;2023-08-31T10:33:32;-11650.84;;;-142.29;45.64
7748;BME280;3918;42.564;23.164;2023-08-31T10:35:59;-11650.84;;;-142.29;44.62
7748;BME280;3918;42.564;23.164;2023-08-31T10:38:28;-11650.84;;;-142.29;46.14
7748;BME280;3918;42.564;23.164;2023-08-31T10:41:19;-11650.84;;;-142.29;45.79
7748;BME280;3918;42.564;23.164;2023-08-31T10:43:48;-11650.84;;;-142.29;45.12
7748;BME280;3918;42.564;23.164;2023-08-31T10:46:29;-11650.84;;;-142.29;45.40
7748;BME280;3918;42.564;23.164;2023-08-31T10:48:58;-11650.84;;;-142.29;45.24
7748;BME280;3918;42.564;23.164;2023-08-31T10:51:26;-11650.84;;;-142.29;47.03
7748;BME280;3918;42.564;23.164;2023-08-31T10:54:11;-11650.84;;;-142.29;47.63
7748;BME280;3918;42.564;23.164;2023-08-31T10:56:53;-11650.84;;;-142.29;48.32
7748;BME280;3918;42.564;23.164;2023-08-31T10:59:23;-11650.84;;;-142.29;48.29
7748;BME280;3918;42.564;23.164;2023-08-31T11:01:55;-11650.84;;;-142.29;46.93
7748;BME280;3918;42.564;23.164;2023-08-31T11:04:23;-11650.84;;;-142.29;46.74
7748;BME280;3918;42.564;23.164;2023-08-31T11:07:16;-11650.84;;;-142.29;46.60
7748;BME280;3918;42.564;23.164;2023-08-31T11:09:46;-11650.84;;;-142.29;46.63
7748;BME280;3918;42.564;23.164;2023-08-31T11:12:13;-11650.84;;;-142.29;46.54
7748;BME280;3918;42.564;23.164;2023-08-31T11:14:40;-11650.84;;;-142.29;46.84
7748;BME280;3918;42.564;23.164;2023-08-31T11:17:20;-11650.84;;;-142.29;47.10
7748;BME280;3918;42.564;23.164;2023-08-31T11:19:47;-11650.84;;;-142.29;47.62
7748;BME280;3918;42.564;23.164;2023-08-31T11:22:16;-11650.84;;;-142.29;46.22
7748;BME280;3918;42.564;23.164;2023-08-31T11:24:43;-11650.84;;;-142.29;46.26
7748;BME280;3918;42.564;23.164;2023-08-31T11:27:13;-11650.84;;;-142.29;47.25
7748;BME280;3918;42.564;23.164;2023-08-31T11:29:43;-11650.84;;;-142.29;46.20
7748;BME280;3918;42.564;23.164;2023-08-31T11:32:10;-11650.84;;;-142.29;45.34
7748;BME280;3918;42.564;23.164;2023-08-31T11:34:41;-11650.84;;;-142.29;45.92
7748;BME280;3918;42.564;23.164;2023-08-31T11:37:09;-11650.84;;;-142.29;45.97
7748;BME280;3918;42.564;23.164;2023-08-31T11:39:37;-11650.84;;;-142.29;46.29
7748;BME280;3918;42.564;23.164;2023-08-31T11:42:05;-11650.84;;;-142.29;47.10
7748;BME280;3918;42.564;23.164;2023-08-31T11:44:35;-11650.84;;;-142.29;47.41
7748;BME280;3918;42.564;23.164;2023-08-31T11:47:05;-11650.84;;;-142.29;46.36
7748;BME280;3918;42.564;23.164;2023-08-31T11:49:32;-11650.84;;;-142.29;46.87
7748;BME280;3918;42.564;23.164;2023-08-31T11:52:03;-11650.84;;;-142.29;46.80
7748;BME280;3918;42.564;23.164;2023-08-31T11:54:30;-11650.84;;;-142.29;47.03
7748;BME280;3918;42.564;23.164;2023-08-31T11:56:57;-11650.84;;;-142.29;47.36
7748;BME280;3918;42.564;23.164;2023-08-31T11:59:24;-11650.84;;;-142.29;46.95
7748;BME280;3918;42.564;23.164;2023-08-31T12:01:51;-11650.84;;;-142.29;46.93
7748;BME280;3918;42.564;23.164;2023-08-31T12:04:23;-11650.84;;;-142.29;46.13
7748;BME280;3918;42.564;23.164;2023-08-31T12:06:51;-11650.84;;;-142.29;46.38
7748;BME280;3918;42.564;23.164;2023-08-31T12:09:20;-11650.84;;;-142.29;47.10
7748;BME280;3918;42.564;23.164;2023-08-31T12:11:50;-11650.84;;;-142.29;46.37
7748;BME280;3918;42.564;23.164;2023-08-31T12:14:19;-11650.84;;;-142.29;46.01
7748;BME280;3918;42.564;23.164;2023-08-31T12:16:46;-11650.84;;;-142.29;45.84
7748;BME280;3918;42.564;23.164;2023-08-31T12:19:13;-11650.84;;;-142.29;45.80
7748;BME280;3918;42.564;23.164;2023-08-31T12:21:42;-11650.84;;;-142.29;44.94
7748;BME280;3918;42.564;23.164;2023-08-31T12:24:10;-11650.84;;;-142.29;46.43
7748;BME280;3918;42.564;23.164;2023-08-31T12:26:38;-11650.84;;;-142.29;48.25
7748;BME280;3918;42.564;23.164;2023-08-31T12:29:05;-11650.84;;;-142.29;48.41
7748;BME280;3918;42.564;23.164;2023-08-31T12:31:35;-11650.84;;;-142.29;48.50
7748;BME280;3918;42.564;23.164;2023-08-31T12:34:02;-11650.84;;;-142.29;48.87
7748;BME280;3918;42.564;23.164;2023-08-31T12:36:30;-11650.84;;;-142.29;48.92
7748;BME280;3918;42.564;23.164;2023-08-31T12:38:57;-11650.84;;;-142.29;48.58
7748;BME280;3918;42.564;23.164;2023-08-31T12:41:26;-11650.84;;;-142.29;49.80
7748;BME280;3918;42.564;23.164;2023-08-31T12:43:54;-11650.84;;;-142.29;50.04
7748;BME280;3918;42.564;23.164;2023-08-31T12:46:21;-11650.84;;;-142.29;49.40
7748;BME280;3918;42.564;23.164;2023-08-31T12:48:50;-11650.84;;;-142.29;47.96
7748;BME280;3918;42.564;23.164;2023-08-31T12:51:18;-11650.84;;;-142.29;47.63
7748;BME280;3918;42.564;23.164;2023-08-31T12:53:45;-11650.84;;;-142.29;50.35
7748;BME280;3918;42.564;23.164;2023-08-31T12:56:12;-11650.84;;;-142.29;49.49
7748;BME280;3918;42.564;23.164;2023-08-31T12:58:39;-11650.84;;;-142.29;48.06
7748;BME280;3918;42.564;23.164;2023-08-31T13:01:07;-11650.84;;;-142.29;49.31
7748;BME280;3918;42.564;23.164;2023-08-31T13:03:33;-11650.84;;;-142.29;49.08
7748;BME280;3918;42.564;23.164;2023-08-31T13:06:00;-11650.84;;;-142.29;49.54
7748;BME280;3918;42.564;23.164;2023-08-31T13:08:29;-11650.84;;;-142.29;46.47
7748;BME280;3918;42.564;23.164;2023-08-31T13:10:56;-11650.84;;;-142.29;46.88
7748;BME280;3918;42.564;23.164;2023-08-31T13:13:23;-11650.84;;;-142.29;47.44
7748;BME280;3918;42.564;23.164;2023-08-31T13:15:50;-11650.84;;;-142.29;46.98
7748;BME280;3918;42.564;23.164;2023-08-31T13:18:18;-11650.84;;;-142.29;46.01
7748;BME280;3918;42.564;23.164;2023-08-31T13:20:51;-11650.84;;;-142.29;46.25
7748;BME280;3918;42.564;23.164;2023-08-31T13:23:18;-11650.84;;;-142.29;47.39
7748;BME280;3918;42.564;23.164;2023-08-31T13:25:44;-11650.84;;;-142.29;46.94
7748;BME280;3918;42.564;23.164;2023-08-31T13:28:12;-11650.84;;;-142.29;47.41
7748;BME280;3918;42.564;23.164;2023-08-31T13:30:38;-11650.84;;;-142.29;46.44
7748;BME280;3918;42.564;23.164;2023-08-31T13:33:06;-11650.84;;;-142.29;46.62
7748;BME280;3918;42.564;23.164;2023-08-31T13:35:37;-11650.84;;;-142.29;46.26
7748;BME280;3918;42.564;23.164;2023-08-31T13:38:04;-11650.84;;;-142.29;48.14
7748;BME280;3918;42.564;23.164;2023-08-31T13:40:34;-11650.84;;;-142.29;47.78
7748;BME280;3918;42.564;23.164;2023-08-31T13:43:00;-11650.84;;;-142.29;48.50
7748;BME280;3918;42.564;23.164;2023-08-31T13:45:28;-11650.84;;;-142.29;49.13
7748;BME280;3918;42.564;23.164;2023-08-31T13:47:55;-11650.84;;;-142.29;48.15
7748;BME280;3918;42.564;23.164;2023-08-31T13:50:22;-11650.84;;;-142.29;50.02
7748;BME280;3918;42.564;23.164;2023-08-31T13:52:50;-11650.84;;;-142.29;51.32
7748;BME280;3918;42.564;23.164;2023-08-31T13:55:17;-11650.84;;;-142.29;54.72
7748;BME280;3918;42.564;23.164;2023-08-31T13:57:43;-11650.84;;;-142.29;58.58
7748;BME280;3918;42.564;23.164;2023-08-31T14:00:11;-11650.84;;;-142.29;62.93
7748;BME280;3918;42.564;23.164;2023-08-31T14:02:38;-11650.84;;;-142.29;67.90
7748;BME280;3918;42.564;23.164;2023-08-31T14:05:09;-11650.84;;;-142.29;74.25
7748;BME280;3918;42.564;23.164;2023-08-31T14:07:37;-11650.84;;;-142.29;79.45
7748;BME280;3918;42.564;23.164;2023-08-31T14:10:06;-11650.84;;;-142.29;75.60
7748;BME280;3918;42.564;23.164;2023-08-31T14:12:33;-11650.84;;;-142.29;76.07
7748;BME280;3918;42.564;23.164;2023-08-31T14:15:02;-11650.84;;;-142.29;76.89
7748;BME280;3918;42.564;23.164;2023-08-31T14:17:33;-11650.84;;;-142.29;82.99
7748;BME280;3918;42.564;23.164;2023-08-31T14:20:03;-11650.84;;;-142.29;86.60
7748;BME280;3918;42.564;23.164;2023-08-31T14:22:33;-11650.84;;;-142.29;89.48
7748;BME280;3918;42.564;23.164;2023-08-31T14:25:16;-11650.84;;;-142.29;87.86
7748;BME280;3918;42.564;23.164;2023-08-31T14:27:43;-11650.84;;;-142.29;89.40
7748;BME280;3918;42.564;23.164;2023-08-31T14:30:20;-11650.84;;;-142.29;90.53
7748;BME280;3918;42.564;23.164;2023-08-31T14:32:50;-11650.84;;;-142.29;90.88
7748;BME280;3918;42.564;23.164;2023-08-31T14:35:22;-11650.84;;;-142.29;91.20
7748;BME280;3918;42.564;23.164;2023-08-31T14:37:51;-11650.84;;;-142.29;87.15
7748;BME280;3918;42.564;23.164;2023-08-31T14:40:19;-11650.84;;;-142.29;89.50
7748;BME280;3918;42.564;23.164;2023-08-31T14:42:46;-11650.84;;;-142.29;88.57
7748;BME280;3918;42.564;23.164;2023-08-31T14:45:19;-11650.84;;;-142.29;85.23
7748;BME280;3918;42.564;23.164;2023-08-31T14:47:45;-11650.84;;;-142.29;100.00
7748;BME280;3918;42.564;23.164;2023-08-31T14:50:12;-11650.84;;;-142.29;100.00
7748;BME280;3918;42.564;23.164;2023-08-31T14:52:39;-11650.84;;;-142.29;100.00
7748;BME280;3918;42.564;23.164;2023-08-31T14:55:19;-11650.84;;;-142.29;100.00
7748;BME280;3918;42.564;23.164;2023-08-31T14:57:48;-11650.84;;;-142.29;100.00
7748;BME280;3918;42.564;23.164;2023-08-31T15:00:23;-11650.84;;;-142.29;100.00
7748;BME280;3918;42.564;23.164;2023-08-31T15:02:49;-11650.84;;;-142.29;100.00
7748;BME280;3918;42.564;23.164;2023-08-31T15:05:18;-11650.84;;;-142.29;100.00
7748;BME280;3918;42.564;23.164;2023-08-31T15:07:51;-11650.84;;;-142.29;100.00
7748;BME280;3918;42.564;23.164;2023-08-31T15:10:18;-11650.84;;;-142.29;100.00
7748;BME280;3918;42.564;23.164;2023-08-31T15:12:55;-11650.84;;;-142.29;100.00
7748;BME280;3918;42.564;23.164;2023-08-31T15:15:28;-11650.84;;;-142.29;100.00
7748;BME280;3918;42.564;23.164;2023-08-31T15:17:55;-11650.84;;;-142.29;100.00
7748;BME280;3918;42.564;23.164;2023-08-31T15:20:28;-11650.84;;;-142.29;100.00
7748;BME280;3918;42.564;23.164;2023-08-31T15:22:57;-11650.84;;;-142.29;100.00
7748;BME280;3918;42.564;23.164;2023-08-31T15:25:32;-11650.84;;;-142.29;100.00
7748;BME280;3918;42.564;23.164;2023-08-31T15:28:00;-11650.84;;;-142.29;100.00
7748;BME280;3918;42.564;23.164;2023-08-31T15:30:35;-11650.84;;;-142.29;100.00
7748;BME280;3918;42.564;23.164;2023-08-31T15:33:02;-11650.84;;;-142.29;100.00
7748;BME280;3918;42.564;23.164;2023-08-31T15:35:36;-11650.84;;;-142.29;100.00
7748;BME280;3918;42.564;23.164;2023-08-31T15:38:03;-11650.84;;;-142.29;100.00
7748;BME280;3918;42.564;23.164;2023-08-31T15:40:45;-11650.84;;;-142.29;100.00
7748;BME280;3918;42.564;23.164;2023-08-31T15:46:07;-11650.84;;;-142.29;100.00
7748;BME280;3918;42.564;23.164;2023-08-31T15:48:48;-11650.84;;;-142.29;100.00
7748;BME280;3918;42.564;23.164;2023-08-31T15:51:41;-11650.84;;;-142.29;100.00
7748;BME280;3918;42.564;23.164;2023-08-31T15:54:08;-11650.84;;;-142.29;100.00
7748;BME280;3918;42.564;23.164;2023-08-31T15:56:44;-11650.84;;;-142.29;100.00
7748;BME280;3918;42.564;23.164;2023-08-31T15:59:19;-11650.84;;;-142.29;100.00
7748;BME280;3918;42.564;23.164;2023-08-31T16:02:09;-11650.84;;;-142.29;100.00
7748;BME280;3918;42.564;23.164;2023-08-31T16:04:49;-11650.84;;;-142.29;100.00
7748;BME280;3918;42.564;23.164;2023-08-31T16:07:41;-11650.84;;;-142.29;100.00
7748;BME280;3918;42.564;23.164;2023-08-31T16:10:15;-11650.84;;;-142.29;100.00
7748;BME280;3918;42.564;23.164;2023-08-31T16:12:48;-11650.84;;;-142.29;100.00
7748;BME280;3918;42.564;23.164;2023-08-31T16:15:16;-11650.84;;;-142.29;100.00
7748;BME280;3918;42.564;23.164;2023-08-31T16:17:51;-11650.84;;;-142.29;100.00
7748;BME280;3918;42.564;23.164;2023-08-31T16:20:18;-11650.84;;;-142.29;100.00
7748;BME280;3918;42.564;23.164;2023-08-31T16:22:45;-11650.84;;;-142.29;100.00
7748;BME280;3918;42.564;23.164;2023-08-31T16:25:12;-11650.84;;;-142.29;100.00
7748;BME280;3918;42.564;23.164;2023-08-31T16:27:41;-11650.84;;;-142.29;100.00
7748;BME280;3918;42.564;23.164;2023-08-31T16:30:09;-11650.84;;;-142.29;100.00
7748;BME280;3918;42.564;23.164;2023-08-31T16:33:05;-11650.84;;;-142.29;100.00
7748;BME280;3918;42.564;23.164;2023-08-31T16:35:32;-11650.84;;;-142.29;100.00
7748;BME280;3918;42.564;23.164;2023-08-31T16:38:07;-11650.84;;;-142.29;100.00
7748;BME280;3918;42.564;23.164;2023-08-31T16:40:34;-11650.84;;;-142.29;100.00
7748;BME280;3918;42.564;23.164;2023-08-31T16:43:07;-11650.84;;;-142.29;100.00
7748;BME280;3918;42.564;23.164;2023-08-31T16:45:34;-11650.84;;;-142.29;100.00
7748;BME280;3918;42.564;23.164;2023-08-31T16:48:15;-11650.84;;;-142.29;100.00
7748;BME280;3918;42.564;23.164;2023-08-31T16:50:42;-11650.84;;;-142.29;100.00
7748;BME280;3918;42.564;23.164;2023-08-31T16:53:26;-11650.84;;;-142.29;100.00
7748;BME280;3918;42.564;23.164;2023-08-31T16:55:53;-11650.84;;;-142.29;100.00